createdAt,value
2018-07-03T00:01:27.686Z,94.20
2018-07-03T00:03:55.939Z,94.40
2018-07-03T00:06:24.208Z,94.60
2018-07-03T00:08:52.520Z,94.60
2018-07-03T00:11:21.038Z,95.50
2018-07-03T00:13:49.406Z,95.80
2018-07-03T00:16:22.903Z,96.00
2018-07-03T00:18:51.155Z,96.30
2018-07-03T00:21:19.440Z,95.30
2018-07-03T00:23:51.441Z,96.30
2018-07-03T00:26:19.700Z,97.20
2018-07-03T00:28:47.962Z,97.10
2018-07-03T00:31:16.256Z,97.20
2018-07-03T00:33:44.512Z,97.20
2018-07-03T00:36:12.817Z,98.40
2018-07-03T00:38:41.095Z,97.80
2018-07-03T00:41:09.973Z,98.60
2018-07-03T00:43:38.492Z,98.10
2018-07-03T00:46:07.114Z,98.00
2018-07-03T00:48:35.409Z,98.40
2018-07-03T00:51:04.032Z,99.20
2018-07-03T00:53:32.317Z,99.40
2018-07-03T00:56:00.597Z,99.70
2018-07-03T00:58:28.861Z,99.90
2018-07-03T01:00:57.191Z,99.90
2018-07-03T01:03:25.446Z,99.90
2018-07-03T01:05:53.725Z,99.90
2018-07-03T01:08:21.959Z,99.90
2018-07-03T01:10:50.559Z,99.50
2018-07-03T01:13:18.855Z,99.90
2018-07-03T01:15:47.463Z,99.90
2018-07-03T01:18:15.732Z,99.90
2018-07-03T01:20:44.000Z,99.90
2018-07-03T01:23:12.282Z,99.90
2018-07-03T01:25:40.577Z,99.90
2018-07-03T01:28:08.863Z,99.90
2018-07-03T01:30:37.142Z,99.90
2018-07-03T01:33:05.615Z,99.90
2018-07-03T01:35:33.906Z,99.90
2018-07-03T01:38:02.171Z,99.90
2018-07-03T01:40:30.669Z,99.90
2018-07-03T01:42:59.252Z,99.90
2018-07-03T01:45:27.865Z,99.90
2018-07-03T01:47:56.102Z,99.90
2018-07-03T01:50:24.429Z,99.90
2018-07-03T01:52:52.662Z,99.90
2018-07-03T01:55:20.914Z,99.90
2018-07-03T01:57:49.154Z,99.90
2018-07-03T02:00:17.426Z,99.90
2018-07-03T02:02:45.705Z,99.90
2018-07-03T02:05:14.019Z,99.90
2018-07-03T02:07:42.271Z,99.90
2018-07-03T02:10:10.519Z,99.90
2018-07-03T02:12:39.578Z,99.90
2018-07-03T02:17:36.221Z,99.90
2018-07-03T02:20:04.814Z,99.90
2018-07-03T02:22:33.072Z,99.90
2018-07-03T02:25:01.455Z,99.90
2018-07-03T02:27:29.721Z,99.90
2018-07-03T02:29:57.990Z,99.90
2018-07-03T02:32:26.234Z,99.90
2018-07-03T02:34:54.508Z,99.90
2018-07-03T02:37:22.743Z,99.90
2018-07-03T02:39:51.050Z,99.90
2018-07-03T02:42:19.337Z,99.90
2018-07-03T02:44:47.623Z,99.90
2018-07-03T02:47:15.892Z,99.90
2018-07-03T02:49:44.178Z,99.90
2018-07-03T02:52:12.440Z,99.90
2018-07-03T02:54:40.717Z,99.90
2018-07-03T02:57:08.950Z,99.90
2018-07-03T03:02:05.642Z,99.90
2018-07-03T03:04:33.943Z,99.90
2018-07-03T03:09:30.842Z,99.90
2018-07-03T03:11:59.096Z,99.90
2018-07-03T03:14:27.359Z,99.90
2018-07-03T03:16:55.598Z,99.90
2018-07-03T03:19:23.884Z,99.90
2018-07-03T03:21:52.155Z,99.90
2018-07-03T03:24:20.431Z,99.90
2018-07-03T03:26:48.710Z,99.90
2018-07-03T03:29:16.971Z,99.90
2018-07-03T03:31:45.412Z,99.90
2018-07-03T03:34:13.690Z,99.90
2018-07-03T03:36:41.929Z,99.90
2018-07-03T03:39:10.199Z,99.90
2018-07-03T03:41:38.792Z,99.90
2018-07-03T03:44:07.080Z,99.90
2018-07-03T03:46:35.360Z,99.90
2018-07-03T03:49:03.650Z,99.90
2018-07-03T03:51:32.246Z,99.90
2018-07-03T03:54:00.522Z,99.90
2018-07-03T03:56:28.779Z,99.90
2018-07-03T03:58:57.410Z,99.90
2018-07-03T04:01:26.020Z,99.90
2018-07-03T04:03:54.284Z,99.90
2018-07-03T04:06:22.550Z,99.90
2018-07-03T04:08:50.833Z,99.90
2018-07-03T04:11:19.098Z,99.90
2018-07-03T04:13:47.379Z,99.90
2018-07-03T04:16:16.208Z,99.90
2018-07-03T04:18:44.711Z,99.90
2018-07-03T04:21:12.943Z,99.90
2018-07-03T04:23:41.218Z,99.90
2018-07-03T04:26:09.482Z,99.90
2018-07-03T04:28:37.778Z,99.90
2018-07-03T04:31:07.136Z,99.90
2018-07-03T04:33:35.763Z,99.90
2018-07-03T04:36:04.015Z,99.90
2018-07-03T04:38:32.291Z,99.90
2018-07-03T04:41:00.560Z,99.90
2018-07-03T04:43:28.850Z,99.90
2018-07-03T04:45:57.099Z,99.90
2018-07-03T04:48:25.330Z,99.90
2018-07-03T04:50:53.603Z,99.90
2018-07-03T04:53:21.890Z,99.90
2018-07-03T04:55:50.315Z,99.90
2018-07-03T04:58:18.828Z,99.90
2018-07-03T05:00:47.439Z,99.90
2018-07-03T05:03:16.038Z,99.90
2018-07-03T05:05:44.336Z,99.90
2018-07-03T05:08:12.962Z,99.90
2018-07-03T05:10:41.234Z,99.90
2018-07-03T05:13:09.556Z,99.90
2018-07-03T05:15:37.823Z,99.90
2018-07-03T05:18:06.082Z,99.90
2018-07-03T05:20:34.568Z,99.90
2018-07-03T05:23:02.847Z,99.90
2018-07-03T05:25:31.119Z,99.90
2018-07-03T05:27:59.392Z,99.90
2018-07-03T05:30:27.689Z,99.90
2018-07-03T05:32:56.295Z,99.90
2018-07-03T05:35:24.576Z,99.90
2018-07-03T05:37:53.023Z,99.90
2018-07-03T05:40:21.335Z,99.90
2018-07-03T05:42:50.169Z,99.90
2018-07-03T05:45:18.600Z,99.90
2018-07-03T05:47:46.866Z,99.90
2018-07-03T05:50:15.152Z,99.90
2018-07-03T05:52:43.491Z,99.90
2018-07-03T05:55:11.759Z,99.90
2018-07-03T05:57:40.025Z,99.90
2018-07-03T06:00:08.429Z,99.90
2018-07-03T06:02:36.780Z,99.90
2018-07-03T06:05:05.410Z,99.90
2018-07-03T06:07:34.272Z,99.90
2018-07-03T06:10:03.304Z,99.90
2018-07-03T06:12:31.588Z,99.90
2018-07-03T06:15:00.455Z,99.90
2018-07-03T06:17:29.704Z,99.90
2018-07-03T06:19:58.562Z,99.90
2018-07-03T06:22:27.875Z,99.50
2018-07-03T06:24:56.673Z,98.60
2018-07-03T06:29:59.951Z,96.40
2018-07-03T06:32:29.057Z,96.00
2018-07-03T06:34:57.920Z,95.80
2018-07-03T06:37:26.776Z,94.70
2018-07-03T06:39:55.820Z,94.10
2018-07-03T06:42:24.821Z,94.20
2018-07-03T06:44:53.688Z,93.40
2018-07-03T06:47:22.751Z,95.70
2018-07-03T06:52:32.067Z,92.80
2018-07-03T06:55:00.960Z,92.80
2018-07-03T06:57:29.883Z,94.20
2018-07-03T07:00:01.943Z,94.00
2018-07-03T07:02:43.233Z,93.00
2018-07-03T07:05:11.898Z,92.50
2018-07-03T07:07:40.944Z,92.20
2018-07-03T07:10:09.870Z,92.10
2018-07-03T07:12:38.662Z,91.60
2018-07-03T07:15:08.180Z,92.60
2018-07-03T07:17:37.177Z,91.60
2018-07-03T07:22:35.279Z,92.10
2018-07-03T07:27:32.853Z,90.90
2018-07-03T07:30:01.674Z,90.40
2018-07-03T07:32:30.502Z,91.40
2018-07-03T07:34:59.303Z,91.20
2018-07-03T07:37:28.354Z,90.60
2018-07-03T07:40:06.511Z,90.90
2018-07-03T07:42:35.394Z,90.10
2018-07-03T07:45:04.684Z,90.10
2018-07-03T07:47:33.855Z,88.60
2018-07-03T07:50:02.886Z,86.80
2018-07-03T07:52:31.755Z,87.50
2018-07-03T07:55:00.569Z,88.80
2018-07-03T07:57:29.920Z,86.40
2018-07-03T07:59:58.739Z,89.00
2018-07-03T08:02:27.588Z,86.80
2018-07-03T08:04:56.095Z,86.60
2018-07-03T08:07:24.946Z,86.20
2018-07-03T08:09:53.769Z,86.60
2018-07-03T08:12:22.899Z,82.30
2018-07-03T08:14:51.726Z,81.60
2018-07-03T08:17:20.537Z,82.80
2018-07-03T08:19:49.488Z,81.40
2018-07-03T08:22:18.326Z,79.00
2018-07-03T08:24:47.143Z,80.00
2018-07-03T08:27:15.937Z,80.90
2018-07-03T08:29:44.875Z,82.40
2018-07-03T08:32:13.759Z,82.00
2018-07-03T08:34:42.693Z,80.90
2018-07-03T08:37:11.645Z,81.50
2018-07-03T08:39:40.451Z,81.60
2018-07-03T08:42:09.607Z,80.00
2018-07-03T08:44:38.952Z,77.00
2018-07-03T08:49:36.562Z,80.60
2018-07-03T08:52:05.509Z,76.90
2018-07-03T08:54:34.333Z,73.90
2018-07-03T08:57:04.139Z,76.50
2018-07-03T08:59:33.285Z,70.20
2018-07-03T09:02:02.533Z,75.00
2018-07-03T09:04:31.820Z,74.10
2018-07-03T09:07:00.669Z,72.60
2018-07-03T09:09:29.509Z,72.50
2018-07-03T09:11:58.498Z,72.70
2018-07-03T09:14:27.307Z,73.10
2018-07-03T09:16:56.113Z,71.90
2018-07-03T09:19:24.968Z,73.30
2018-07-03T09:21:53.778Z,69.50
2018-07-03T09:24:22.816Z,70.20
2018-07-03T09:29:21.629Z,65.10
2018-07-03T09:31:50.420Z,67.20
2018-07-03T09:34:19.270Z,71.00
2018-07-03T09:36:48.067Z,70.40
2018-07-03T09:39:16.872Z,66.60
2018-07-03T09:41:45.646Z,61.80
2018-07-03T09:44:14.474Z,65.70
2018-07-03T09:46:43.683Z,66.70
2018-07-03T09:49:12.655Z,60.70
2018-07-03T09:51:41.751Z,64.60
2018-07-03T09:54:10.553Z,64.70
2018-07-03T09:56:39.349Z,60.60
2018-07-03T09:59:08.184Z,59.30
2018-07-03T10:01:36.972Z,67.20
2018-07-03T10:04:05.506Z,64.40
2018-07-03T10:06:34.638Z,57.70
2018-07-03T10:11:32.484Z,60.40
2018-07-03T10:14:01.290Z,59.70
2018-07-03T10:16:30.279Z,63.00
2018-07-03T10:18:59.148Z,63.00
2018-07-03T10:21:28.122Z,61.20
2018-07-03T10:23:56.931Z,61.50
2018-07-03T10:26:25.775Z,60.10
2018-07-03T10:28:54.658Z,58.50
2018-07-03T10:31:23.517Z,60.60
2018-07-03T10:33:52.546Z,62.70
2018-07-03T10:36:21.366Z,58.40
2018-07-03T10:38:50.173Z,63.40
2018-07-03T10:41:19.016Z,62.50
2018-07-03T10:43:47.836Z,63.50
2018-07-03T10:46:16.654Z,59.80
2018-07-03T10:51:14.228Z,59.10
2018-07-03T10:53:43.062Z,60.40
2018-07-03T10:56:11.880Z,60.30
2018-07-03T10:58:40.998Z,60.30
2018-07-03T11:01:09.810Z,58.80
2018-07-03T11:03:38.041Z,58.10
2018-07-03T11:06:06.888Z,56.20
2018-07-03T11:08:35.685Z,56.80
2018-07-03T11:11:04.507Z,57.90
2018-07-03T11:13:33.349Z,56.70
2018-07-03T11:16:02.135Z,58.20
2018-07-03T11:18:30.966Z,59.60
2018-07-03T11:20:59.781Z,57.00
2018-07-03T11:23:28.578Z,54.70
2018-07-03T11:25:57.390Z,55.80
2018-07-03T11:28:26.200Z,56.60
2018-07-03T11:30:55.044Z,58.10
2018-07-03T11:33:23.914Z,55.30
2018-07-03T11:35:52.742Z,54.00
2018-07-03T11:38:21.565Z,52.60
2018-07-03T11:40:50.424Z,51.40
2018-07-03T11:43:19.345Z,54.80
2018-07-03T11:45:48.291Z,52.00
2018-07-03T11:48:17.086Z,51.80
2018-07-03T11:50:45.920Z,54.00
2018-07-03T11:53:14.738Z,52.00
2018-07-03T11:55:43.874Z,51.10
2018-07-03T11:58:12.893Z,51.40
2018-07-03T12:00:41.707Z,52.80
2018-07-03T12:03:10.537Z,51.30
2018-07-03T12:05:40.199Z,55.60
2018-07-03T12:08:09.074Z,52.10
2018-07-03T12:10:37.898Z,50.50
2018-07-03T12:13:06.990Z,54.00
2018-07-03T12:15:35.958Z,52.20
2018-07-03T12:18:05.568Z,53.60
2018-07-03T12:20:34.745Z,49.60
2018-07-03T12:23:03.595Z,52.10
2018-07-03T12:25:32.758Z,51.00
2018-07-03T12:28:01.540Z,51.00
2018-07-03T12:30:30.647Z,49.50
2018-07-03T12:32:59.471Z,51.30
2018-07-03T12:35:28.299Z,49.50
2018-07-03T12:37:57.161Z,50.80
2018-07-03T12:40:25.990Z,52.20
2018-07-03T12:42:54.837Z,50.40
2018-07-03T12:45:23.717Z,50.30
2018-07-03T12:47:52.907Z,50.30
2018-07-03T12:50:21.998Z,47.90
2018-07-03T12:52:50.800Z,48.80
2018-07-03T12:55:19.652Z,46.10
2018-07-03T12:57:48.619Z,50.90
2018-07-03T13:00:17.441Z,54.30
2018-07-03T13:02:46.296Z,49.60
2018-07-03T13:05:14.865Z,50.90
2018-07-03T13:07:43.682Z,52.00
2018-07-03T13:10:12.701Z,50.80
2018-07-03T13:12:41.549Z,50.30
2018-07-03T13:15:10.356Z,51.60
2018-07-03T13:17:39.355Z,53.40
2018-07-03T13:20:08.198Z,53.70
2018-07-03T13:22:37.025Z,49.90
2018-07-03T13:25:08.479Z,52.40
2018-07-03T13:30:28.410Z,52.10
2018-07-03T13:32:57.772Z,51.60
2018-07-03T13:35:26.956Z,51.80
2018-07-03T13:37:55.800Z,50.00
2018-07-03T13:42:54.249Z,49.10
2018-07-03T13:45:23.190Z,52.60
2018-07-03T13:47:52.191Z,53.40
2018-07-03T13:50:21.018Z,52.90
2018-07-03T13:52:49.828Z,52.00
2018-07-03T13:55:18.743Z,50.60
2018-07-03T13:57:47.594Z,50.70
2018-07-03T14:00:16.718Z,48.60
2018-07-03T14:02:45.558Z,50.00
2018-07-03T14:05:28.655Z,50.90
2018-07-03T14:08:01.378Z,51.60
2018-07-03T14:10:30.202Z,50.10
2018-07-03T14:12:59.200Z,50.30
2018-07-03T14:15:28.141Z,51.10
2018-07-03T19:07:51.099Z,86.80
2018-07-03T19:10:20.481Z,87.30
2018-07-03T19:12:49.330Z,89.30
2018-07-03T19:15:18.371Z,89.40
2018-07-03T19:17:47.269Z,90.00
2018-07-03T19:20:16.218Z,90.60
2018-07-03T19:22:45.368Z,91.40
2018-07-03T19:25:14.266Z,91.00
2018-07-03T19:27:44.163Z,90.70
2018-07-03T19:30:13.072Z,91.20
2018-07-03T19:32:42.401Z,91.90
2018-07-03T19:35:12.241Z,93.10
2018-07-03T19:37:41.112Z,93.10
2018-07-03T19:40:10.016Z,93.80
2018-07-03T19:42:51.892Z,93.40
2018-07-03T19:45:21.063Z,94.70
2018-07-03T19:47:49.989Z,95.00
2018-07-03T19:50:19.020Z,94.20
2018-07-03T19:52:47.543Z,95.70
2018-07-03T19:55:16.441Z,95.30
2018-07-03T19:57:45.575Z,95.80
2018-07-03T20:00:14.490Z,96.00
2018-07-03T20:02:43.195Z,95.90
2018-07-03T20:05:12.008Z,97.10
2018-07-03T20:10:15.957Z,98.40
2018-07-03T20:12:44.259Z,99.20
2018-07-03T20:15:12.575Z,99.80
2018-07-03T20:17:40.966Z,99.40
2018-07-03T20:20:08.913Z,99.50
2018-07-03T20:22:37.273Z,99.30
2018-07-03T20:25:05.589Z,99.90
2018-07-03T20:27:34.457Z,99.90
2018-07-03T20:30:02.810Z,99.90
2018-07-03T20:32:31.154Z,99.90
2018-07-03T20:34:59.487Z,99.90
2018-07-03T20:37:27.864Z,99.90
2018-07-03T20:39:56.306Z,99.90
2018-07-03T20:42:24.672Z,99.90
2018-07-03T20:47:21.620Z,99.90
2018-07-03T20:49:49.937Z,99.90
2018-07-03T20:52:18.202Z,99.90
2018-07-03T20:54:46.513Z,99.90
2018-07-03T20:57:14.858Z,99.90
2018-07-03T20:59:43.473Z,99.90
2018-07-03T21:02:11.903Z,99.90
2018-07-03T21:04:40.186Z,99.90
2018-07-03T21:07:08.918Z,99.90
2018-07-03T21:09:37.213Z,99.90
2018-07-03T21:12:05.515Z,99.90
2018-07-03T21:14:33.798Z,99.90
2018-07-03T21:17:02.124Z,99.90
2018-07-03T21:19:30.440Z,99.90
2018-07-03T21:21:58.722Z,99.90
2018-07-03T21:24:27.152Z,99.90
2018-07-03T21:26:55.552Z,99.90
2018-07-03T21:29:23.863Z,99.90
2018-07-03T21:31:52.212Z,99.90
2018-07-03T21:34:20.596Z,99.90
2018-07-03T21:36:48.891Z,99.90
2018-07-03T21:39:17.280Z,99.90
2018-07-03T21:41:45.667Z,99.90
2018-07-03T21:44:13.993Z,99.90
2018-07-03T21:46:42.301Z,99.90
2018-07-03T21:49:10.779Z,99.90
2018-07-03T21:51:39.076Z,99.90
2018-07-03T21:54:07.445Z,99.90
2018-07-03T21:59:03.852Z,99.90
2018-07-03T22:01:32.179Z,99.90
2018-07-03T22:04:00.494Z,99.90
2018-07-03T22:06:28.861Z,99.90
2018-07-03T22:08:57.369Z,99.90
2018-07-03T22:11:25.670Z,99.90
2018-07-03T22:13:53.981Z,99.90
2018-07-03T22:16:22.361Z,99.90
2018-07-03T22:18:50.818Z,99.90
2018-07-03T22:21:19.135Z,99.90
2018-07-03T22:23:47.409Z,99.90
2018-07-03T22:26:15.691Z,99.90
2018-07-03T22:28:43.972Z,99.90
2018-07-03T22:31:12.251Z,99.90
2018-07-03T22:33:40.542Z,99.90
2018-07-03T22:36:08.830Z,99.90
2018-07-03T22:38:37.101Z,99.90
2018-07-03T22:41:05.588Z,99.90
2018-07-03T22:43:33.849Z,99.90
2018-07-03T22:46:02.122Z,99.90
2018-07-03T22:48:30.449Z,99.90
2018-07-03T22:50:58.746Z,99.90
2018-07-03T22:53:27.006Z,99.90
2018-07-03T22:55:55.276Z,99.90
2018-07-03T22:58:23.568Z,99.90
2018-07-03T23:00:52.037Z,99.90
2018-07-03T23:03:20.339Z,99.90
2018-07-03T23:05:48.592Z,99.90
2018-07-03T23:08:16.862Z,99.90
2018-07-03T23:10:45.110Z,99.90
2018-07-03T23:13:13.651Z,99.90
2018-07-03T23:15:41.913Z,99.90
2018-07-03T23:18:10.179Z,99.90
2018-07-03T23:20:38.470Z,99.90
2018-07-03T23:23:06.914Z,99.90
2018-07-03T23:25:35.171Z,99.90
2018-07-03T23:28:03.477Z,99.90
2018-07-03T23:30:31.737Z,99.90
2018-07-03T23:32:59.999Z,99.90
2018-07-03T23:35:28.276Z,99.90
2018-07-03T23:37:56.567Z,99.90
2018-07-03T23:40:24.857Z,99.90
2018-07-03T23:42:53.137Z,99.90
2018-07-03T23:45:21.762Z,99.90
2018-07-03T23:48:01.384Z,99.90
2018-07-03T23:50:41.029Z,99.90
2018-07-03T23:53:20.650Z,99.90
2018-07-03T23:56:00.314Z,99.90
2018-07-03T23:58:40.042Z,99.90
